sensor_id;sensor_type;location;lat;lon;timestamp;P1;durP1;ratioP1;P2;durP2;ratioP2
11988;SDS011;6054;50.966;7.094;2023-04-08T00:01:05;32.70;;;21.23;;
11988;SDS011;6054;50.966;7.094;2023-04-08T00:03:32;30.02;;;21.27;;
11988;SDS011;6054;50.966;7.094;2023-04-08T00:05:58;36.25;;;22.15;;
11988;SDS011;6054;50.966;7.094;2023-04-08T00:08:27;32.40;;;22.05;;
11988;SDS011;6054;50.966;7.094;2023-04-08T00:10:54;37.00;;;21.65;;
11988;SDS011;6054;50.966;7.094;2023-04-08T00:13:21;32.47;;;20.50;;
11988;SDS011;6054;50.966;7.094;2023-04-08T00:15:48;32.67;;;21.63;;
11988;SDS011;6054;50.966;7.094;2023-04-08T00:18:16;34.88;;;21.40;;
11988;SDS011;6054;50.966;7.094;2023-04-08T00:20:43;30.98;;;20.85;;
11988;SDS011;6054;50.966;7.094;2023-04-08T00:23:10;34.78;;;21.38;;
11988;SDS011;6054;50.966;7.094;2023-04-08T00:25:37;36.40;;;20.48;;
11988;SDS011;6054;50.966;7.094;2023-04-08T00:28:03;32.55;;;21.15;;
11988;SDS011;6054;50.966;7.094;2023-04-08T00:30:30;37.97;;;22.17;;
11988;SDS011;6054;50.966;7.094;2023-04-08T00:32:57;35.55;;;21.13;;
11988;SDS011;6054;50.966;7.094;2023-04-08T00:35:25;32.33;;;21.83;;
11988;SDS011;6054;50.966;7.094;2023-04-08T00:37:52;33.25;;;22.50;;
11988;SDS011;6054;50.966;7.094;2023-04-08T00:40:19;36.17;;;21.52;;
11988;SDS011;6054;50.966;7.094;2023-04-08T00:42:46;37.28;;;22.50;;
11988;SDS011;6054;50.966;7.094;2023-04-08T00:45:12;34.53;;;22.02;;
11988;SDS011;6054;50.966;7.094;2023-04-08T00:47:40;36.70;;;22.15;;
11988;SDS011;6054;50.966;7.094;2023-04-08T00:50:08;40.65;;;21.67;;
11988;SDS011;6054;50.966;7.094;2023-04-08T00:52:37;40.05;;;22.27;;
11988;SDS011;6054;50.966;7.094;2023-04-08T00:55:04;36.40;;;22.27;;
11988;SDS011;6054;50.966;7.094;2023-04-08T00:57:31;37.55;;;22.40;;
11988;SDS011;6054;50.966;7.094;2023-04-08T00:59:58;38.70;;;23.58;;
11988;SDS011;6054;50.966;7.094;2023-04-08T01:02:25;40.70;;;23.20;;
11988;SDS011;6054;50.966;7.094;2023-04-08T01:04:58;34.92;;;22.52;;
11988;SDS011;6054;50.966;7.094;2023-04-08T01:07:27;40.47;;;23.00;;
11988;SDS011;6054;50.966;7.094;2023-04-08T01:10:01;40.15;;;24.33;;
11988;SDS011;6054;50.966;7.094;2023-04-08T01:12:31;43.65;;;23.38;;
11988;SDS011;6054;50.966;7.094;2023-04-08T01:15:04;34.42;;;23.27;;
11988;SDS011;6054;50.966;7.094;2023-04-08T01:17:32;38.30;;;22.95;;
11988;SDS011;6054;50.966;7.094;2023-04-08T01:20:01;39.33;;;22.15;;
11988;SDS011;6054;50.966;7.094;2023-04-08T01:22:32;36.20;;;22.38;;
11988;SDS011;6054;50.966;7.094;2023-04-08T01:25:09;40.13;;;23.17;;
11988;SDS011;6054;50.966;7.094;2023-04-08T01:27:43;34.40;;;22.70;;
11988;SDS011;6054;50.966;7.094;2023-04-08T01:30:11;36.92;;;24.23;;
11988;SDS011;6054;50.966;7.094;2023-04-08T01:32:40;34.65;;;22.08;;
11988;SDS011;6054;50.966;7.094;2023-04-08T01:35:09;38.80;;;23.08;;
11988;SDS011;6054;50.966;7.094;2023-04-08T01:37:36;40.92;;;25.02;;
11988;SDS011;6054;50.966;7.094;2023-04-08T01:40:05;48.65;;;25.10;;
11988;SDS011;6054;50.966;7.094;2023-04-08T01:42:34;45.47;;;24.98;;
11988;SDS011;6054;50.966;7.094;2023-04-08T01:45:03;51.72;;;25.98;;
11988;SDS011;6054;50.966;7.094;2023-04-08T01:47:31;54.75;;;27.17;;
11988;SDS011;6054;50.966;7.094;2023-04-08T01:49:59;52.72;;;25.52;;
11988;SDS011;6054;50.966;7.094;2023-04-08T01:52:27;60.08;;;25.70;;
11988;SDS011;6054;50.966;7.094;2023-04-08T01:54:55;62.90;;;26.58;;
11988;SDS011;6054;50.966;7.094;2023-04-08T01:57:22;65.43;;;25.92;;
11988;SDS011;6054;50.966;7.094;2023-04-08T01:59:51;79.03;;;25.58;;
11988;SDS011;6054;50.966;7.094;2023-04-08T02:02:23;60.97;;;25.90;;
11988;SDS011;6054;50.966;7.094;2023-04-08T02:04:52;52.10;;;23.95;;
11988;SDS011;6054;50.966;7.094;2023-04-08T02:07:19;72.78;;;26.33;;
11988;SDS011;6054;50.966;7.094;2023-04-08T02:09:46;86.57;;;27.05;;
11988;SDS011;6054;50.966;7.094;2023-04-08T02:12:13;86.70;;;26.52;;
11988;SDS011;6054;50.966;7.094;2023-04-08T02:14:39;82.60;;;25.90;;
11988;SDS011;6054;50.966;7.094;2023-04-08T02:17:07;82.43;;;26.38;;
11988;SDS011;6054;50.966;7.094;2023-04-08T02:19:39;78.75;;;27.10;;
11988;SDS011;6054;50.966;7.094;2023-04-08T02:22:13;65.80;;;26.08;;
11988;SDS011;6054;50.966;7.094;2023-04-08T02:24:44;66.43;;;27.35;;
11988;SDS011;6054;50.966;7.094;2023-04-08T02:27:12;63.83;;;27.17;;
11988;SDS011;6054;50.966;7.094;2023-04-08T02:29:39;73.88;;;27.83;;
11988;SDS011;6054;50.966;7.094;2023-04-08T02:32:07;58.13;;;24.73;;
11988;SDS011;6054;50.966;7.094;2023-04-08T02:34:35;59.92;;;26.65;;
11988;SDS011;6054;50.966;7.094;2023-04-08T02:37:05;65.47;;;25.88;;
11988;SDS011;6054;50.966;7.094;2023-04-08T02:39:33;64.55;;;25.58;;
11988;SDS011;6054;50.966;7.094;2023-04-08T02:42:00;67.32;;;26.17;;
11988;SDS011;6054;50.966;7.094;2023-04-08T02:44:27;71.63;;;26.33;;
11988;SDS011;6054;50.966;7.094;2023-04-08T02:46:53;69.35;;;25.23;;
11988;SDS011;6054;50.966;7.094;2023-04-08T02:49:20;54.25;;;25.52;;
11988;SDS011;6054;50.966;7.094;2023-04-08T02:51:47;62.47;;;25.05;;
11988;SDS011;6054;50.966;7.094;2023-04-08T02:54:15;61.10;;;25.75;;
11988;SDS011;6054;50.966;7.094;2023-04-08T02:56:42;66.47;;;26.50;;
11988;SDS011;6054;50.966;7.094;2023-04-08T02:59:09;67.57;;;26.60;;
11988;SDS011;6054;50.966;7.094;2023-04-08T03:01:35;62.85;;;25.02;;
11988;SDS011;6054;50.966;7.094;2023-04-08T03:04:02;61.17;;;25.08;;
11988;SDS011;6054;50.966;7.094;2023-04-08T03:06:30;69.00;;;26.10;;
11988;SDS011;6054;50.966;7.094;2023-04-08T03:08:56;73.38;;;25.05;;
11988;SDS011;6054;50.966;7.094;2023-04-08T03:11:25;72.20;;;25.38;;
11988;SDS011;6054;50.966;7.094;2023-04-08T03:13:51;63.42;;;25.33;;
11988;SDS011;6054;50.966;7.094;2023-04-08T03:16:18;69.70;;;26.52;;
11988;SDS011;6054;50.966;7.094;2023-04-08T03:18:45;65.60;;;25.63;;
11988;SDS011;6054;50.966;7.094;2023-04-08T03:21:12;80.10;;;26.75;;
11988;SDS011;6054;50.966;7.094;2023-04-08T03:26:06;67.60;;;26.17;;
11988;SDS011;6054;50.966;7.094;2023-04-08T03:28:34;64.93;;;25.95;;
11988;SDS011;6054;50.966;7.094;2023-04-08T03:31:01;68.10;;;27.40;;
11988;SDS011;6054;50.966;7.094;2023-04-08T03:33:28;61.42;;;24.30;;
11988;SDS011;6054;50.966;7.094;2023-04-08T03:35:55;67.20;;;24.58;;
11988;SDS011;6054;50.966;7.094;2023-04-08T03:38:22;56.83;;;24.70;;
11988;SDS011;6054;50.966;7.094;2023-04-08T03:40:49;71.30;;;25.85;;
11988;SDS011;6054;50.966;7.094;2023-04-08T03:43:16;81.00;;;25.40;;
11988;SDS011;6054;50.966;7.094;2023-04-08T03:45:46;71.72;;;24.75;;
11988;SDS011;6054;50.966;7.094;2023-04-08T03:48:13;79.10;;;26.45;;
11988;SDS011;6054;50.966;7.094;2023-04-08T03:50:40;84.68;;;26.05;;
11988;SDS011;6054;50.966;7.094;2023-04-08T03:53:06;90.57;;;26.05;;
11988;SDS011;6054;50.966;7.094;2023-04-08T03:55:35;80.82;;;26.20;;
11988;SDS011;6054;50.966;7.094;2023-04-08T03:58:02;87.63;;;26.00;;
11988;SDS011;6054;50.966;7.094;2023-04-08T04:00:28;90.90;;;27.98;;
11988;SDS011;6054;50.966;7.094;2023-04-08T04:02:57;91.50;;;27.10;;
11988;SDS011;6054;50.966;7.094;2023-04-08T04:05:23;99.90;;;26.80;;
11988;SDS011;6054;50.966;7.094;2023-04-08T04:07:50;88.32;;;28.55;;
11988;SDS011;6054;50.966;7.094;2023-04-08T04:10:17;111.28;;;28.73;;
11988;SDS011;6054;50.966;7.094;2023-04-08T04:12:43;104.90;;;26.83;;
11988;SDS011;6054;50.966;7.094;2023-04-08T04:15:11;90.35;;;27.20;;
11988;SDS011;6054;50.966;7.094;2023-04-08T04:17:38;137.60;;;27.95;;
11988;SDS011;6054;50.966;7.094;2023-04-08T04:20:07;118.90;;;27.55;;
11988;SDS011;6054;50.966;7.094;2023-04-08T04:22:34;101.05;;;25.83;;
11988;SDS011;6054;50.966;7.094;2023-04-08T04:25:01;74.20;;;25.63;;
11988;SDS011;6054;50.966;7.094;2023-04-08T04:27:28;80.20;;;26.23;;
11988;SDS011;6054;50.966;7.094;2023-04-08T04:29:54;82.40;;;25.80;;
11988;SDS011;6054;50.966;7.094;2023-04-08T04:32:21;95.75;;;27.20;;
11988;SDS011;6054;50.966;7.094;2023-04-08T04:34:48;97.72;;;26.90;;
11988;SDS011;6054;50.966;7.094;2023-04-08T04:37:16;100.05;;;27.15;;
11988;SDS011;6054;50.966;7.094;2023-04-08T04:39:43;114.50;;;28.05;;
11988;SDS011;6054;50.966;7.094;2023-04-08T04:42:09;85.70;;;25.52;;
11988;SDS011;6054;50.966;7.094;2023-04-08T04:44:36;80.22;;;25.40;;
11988;SDS011;6054;50.966;7.094;2023-04-08T04:47:03;60.33;;;23.08;;
11988;SDS011;6054;50.966;7.094;2023-04-08T04:49:30;70.45;;;23.98;;
11988;SDS011;6054;50.966;7.094;2023-04-08T04:51:56;72.60;;;25.58;;
11988;SDS011;6054;50.966;7.094;2023-04-08T04:54:25;53.63;;;21.85;;
11988;SDS011;6054;50.966;7.094;2023-04-08T04:56:51;61.08;;;23.95;;
11988;SDS011;6054;50.966;7.094;2023-04-08T04:59:18;68.47;;;23.27;;
11988;SDS011;6054;50.966;7.094;2023-04-08T05:01:45;67.63;;;23.55;;
11988;SDS011;6054;50.966;7.094;2023-04-08T05:04:11;60.35;;;22.13;;
11988;SDS011;6054;50.966;7.094;2023-04-08T05:06:38;53.17;;;22.63;;
11988;SDS011;6054;50.966;7.094;2023-04-08T05:09:05;44.22;;;19.77;;
11988;SDS011;6054;50.966;7.094;2023-04-08T05:11:33;46.72;;;22.20;;
11988;SDS011;6054;50.966;7.094;2023-04-08T05:14:00;44.35;;;20.98;;
11988;SDS011;6054;50.966;7.094;2023-04-08T05:16:26;46.30;;;21.23;;
11988;SDS011;6054;50.966;7.094;2023-04-08T05:18:53;45.00;;;20.23;;
11988;SDS011;6054;50.966;7.094;2023-04-08T05:21:20;48.88;;;21.30;;
11988;SDS011;6054;50.966;7.094;2023-04-08T05:23:47;51.28;;;22.38;;
11988;SDS011;6054;50.966;7.094;2023-04-08T05:26:15;44.13;;;20.92;;
11988;SDS011;6054;50.966;7.094;2023-04-08T05:28:43;47.63;;;21.52;;
11988;SDS011;6054;50.966;7.094;2023-04-08T05:31:09;43.15;;;20.85;;
11988;SDS011;6054;50.966;7.094;2023-04-08T05:33:36;43.88;;;21.40;;
11988;SDS011;6054;50.966;7.094;2023-04-08T05:36:03;48.92;;;21.15;;
11988;SDS011;6054;50.966;7.094;2023-04-08T05:38:30;49.28;;;21.38;;
11988;SDS011;6054;50.966;7.094;2023-04-08T05:40:57;51.78;;;22.20;;
11988;SDS011;6054;50.966;7.094;2023-04-08T05:43:24;48.85;;;21.67;;
11988;SDS011;6054;50.966;7.094;2023-04-08T05:45:52;46.85;;;22.02;;
11988;SDS011;6054;50.966;7.094;2023-04-08T05:48:19;47.65;;;22.05;;
11988;SDS011;6054;50.966;7.094;2023-04-08T05:50:46;46.60;;;22.80;;
11988;SDS011;6054;50.966;7.094;2023-04-08T05:53:13;48.90;;;21.67;;
11988;SDS011;6054;50.966;7.094;2023-04-08T05:55:40;45.17;;;21.55;;
11988;SDS011;6054;50.966;7.094;2023-04-08T05:58:07;43.85;;;21.77;;
11988;SDS011;6054;50.966;7.094;2023-04-08T06:00:33;45.75;;;23.27;;
11988;SDS011;6054;50.966;7.094;2023-04-08T06:03:02;45.67;;;21.27;;
11988;SDS011;6054;50.966;7.094;2023-04-08T06:05:30;47.28;;;21.63;;
11988;SDS011;6054;50.966;7.094;2023-04-08T06:07:56;42.08;;;21.00;;
11988;SDS011;6054;50.966;7.094;2023-04-08T06:10:23;43.25;;;20.15;;
11988;SDS011;6054;50.966;7.094;2023-04-08T06:12:50;42.30;;;19.98;;
11988;SDS011;6054;50.966;7.094;2023-04-08T06:15:17;43.88;;;20.80;;
11988;SDS011;6054;50.966;7.094;2023-04-08T06:17:43;45.22;;;21.77;;
11988;SDS011;6054;50.966;7.094;2023-04-08T06:20:11;43.70;;;20.85;;
11988;SDS011;6054;50.966;7.094;2023-04-08T06:22:38;43.33;;;20.35;;
11988;SDS011;6054;50.966;7.094;2023-04-08T06:25:05;41.53;;;20.02;;
11988;SDS011;6054;50.966;7.094;2023-04-08T06:27:32;40.85;;;20.73;;
11988;SDS011;6054;50.966;7.094;2023-04-08T06:29:59;43.92;;;20.90;;
11988;SDS011;6054;50.966;7.094;2023-04-08T06:32:25;34.55;;;19.52;;
11988;SDS011;6054;50.966;7.094;2023-04-08T06:34:52;41.60;;;20.92;;
11988;SDS011;6054;50.966;7.094;2023-04-08T06:37:20;40.92;;;20.95;;
11988;SDS011;6054;50.966;7.094;2023-04-08T06:39:47;40.17;;;20.80;;
11988;SDS011;6054;50.966;7.094;2023-04-08T06:42:14;41.08;;;20.75;;
11988;SDS011;6054;50.966;7.094;2023-04-08T06:44:40;42.53;;;22.00;;
11988;SDS011;6054;50.966;7.094;2023-04-08T06:47:07;42.63;;;21.45;;
11988;SDS011;6054;50.966;7.094;2023-04-08T06:49:34;44.83;;;21.58;;
11988;SDS011;6054;50.966;7.094;2023-04-08T06:52:01;41.40;;;20.83;;
11988;SDS011;6054;50.966;7.094;2023-04-08T06:54:29;48.30;;;21.63;;
11988;SDS011;6054;50.966;7.094;2023-04-08T06:56:56;39.85;;;20.13;;
11988;SDS011;6054;50.966;7.094;2023-04-08T06:59:22;39.47;;;21.20;;
11988;SDS011;6054;50.966;7.094;2023-04-08T07:01:49;38.60;;;19.83;;
11988;SDS011;6054;50.966;7.094;2023-04-08T07:04:16;37.53;;;20.30;;
11988;SDS011;6054;50.966;7.094;2023-04-08T07:06:43;38.05;;;20.85;;
11988;SDS011;6054;50.966;7.094;2023-04-08T07:09:09;35.60;;;19.42;;
11988;SDS011;6054;50.966;7.094;2023-04-08T07:11:37;36.95;;;20.02;;
11988;SDS011;6054;50.966;7.094;2023-04-08T07:14:04;39.55;;;20.15;;
11988;SDS011;6054;50.966;7.094;2023-04-08T07:16:31;46.00;;;21.02;;
11988;SDS011;6054;50.966;7.094;2023-04-08T07:18:58;43.38;;;20.10;;
11988;SDS011;6054;50.966;7.094;2023-04-08T07:21:26;36.35;;;19.48;;
11988;SDS011;6054;50.966;7.094;2023-04-08T07:23:52;40.67;;;19.10;;
11988;SDS011;6054;50.966;7.094;2023-04-08T07:26:19;36.55;;;19.65;;
11988;SDS011;6054;50.966;7.094;2023-04-08T07:28:47;39.80;;;19.70;;
11988;SDS011;6054;50.966;7.094;2023-04-08T07:31:16;35.65;;;20.40;;
11988;SDS011;6054;50.966;7.094;2023-04-08T07:33:43;39.58;;;20.13;;
11988;SDS011;6054;50.966;7.094;2023-04-08T07:36:11;34.33;;;18.40;;
11988;SDS011;6054;50.966;7.094;2023-04-08T07:38:39;38.40;;;20.55;;
11988;SDS011;6054;50.966;7.094;2023-04-08T07:41:06;37.50;;;19.25;;
11988;SDS011;6054;50.966;7.094;2023-04-08T07:43:33;37.75;;;18.83;;
11988;SDS011;6054;50.966;7.094;2023-04-08T07:46:02;35.60;;;20.13;;
11988;SDS011;6054;50.966;7.094;2023-04-08T07:48:29;36.47;;;19.70;;
11988;SDS011;6054;50.966;7.094;2023-04-08T07:50:57;36.13;;;19.98;;
11988;SDS011;6054;50.966;7.094;2023-04-08T07:53:27;35.88;;;19.30;;
11988;SDS011;6054;50.966;7.094;2023-04-08T07:55:54;37.75;;;20.10;;
11988;SDS011;6054;50.966;7.094;2023-04-08T07:58:21;35.22;;;19.85;;
11988;SDS011;6054;50.966;7.094;2023-04-08T08:00:48;36.45;;;20.63;;
11988;SDS011;6054;50.966;7.094;2023-04-08T08:03:17;34.63;;;19.33;;
11988;SDS011;6054;50.966;7.094;2023-04-08T08:05:43;33.10;;;20.45;;
11988;SDS011;6054;50.966;7.094;2023-04-08T08:08:10;36.08;;;21.05;;
11988;SDS011;6054;50.966;7.094;2023-04-08T08:10:37;37.05;;;21.08;;
11988;SDS011;6054;50.966;7.094;2023-04-08T08:13:04;38.58;;;21.13;;
11988;SDS011;6054;50.966;7.094;2023-04-08T08:15:31;35.28;;;21.17;;
11988;SDS011;6054;50.966;7.094;2023-04-08T08:17:58;37.88;;;21.95;;
11988;SDS011;6054;50.966;7.094;2023-04-08T08:20:26;37.00;;;22.65;;
11988;SDS011;6054;50.966;7.094;2023-04-08T08:22:53;39.67;;;20.70;;
11988;SDS011;6054;50.966;7.094;2023-04-08T08:25:20;32.47;;;20.33;;
11988;SDS011;6054;50.966;7.094;2023-04-08T08:27:46;39.00;;;22.15;;
11988;SDS011;6054;50.966;7.094;2023-04-08T08:30:13;33.35;;;21.40;;
11988;SDS011;6054;50.966;7.094;2023-04-08T08:32:40;35.40;;;21.88;;
11988;SDS011;6054;50.966;7.094;2023-04-08T08:35:07;37.10;;;23.88;;
11988;SDS011;6054;50.966;7.094;2023-04-08T08:37:35;31.38;;;21.90;;
11988;SDS011;6054;50.966;7.094;2023-04-08T08:40:02;33.22;;;23.67;;
11988;SDS011;6054;50.966;7.094;2023-04-08T08:42:29;30.60;;;22.85;;
11988;SDS011;6054;50.966;7.094;2023-04-08T08:44:56;31.90;;;22.77;;
11988;SDS011;6054;50.966;7.094;2023-04-08T08:47:26;32.17;;;22.45;;
11988;SDS011;6054;50.966;7.094;2023-04-08T08:49:53;33.17;;;24.40;;
11988;SDS011;6054;50.966;7.094;2023-04-08T08:52:20;33.75;;;24.15;;
11988;SDS011;6054;50.966;7.094;2023-04-08T08:54:48;34.03;;;24.58;;
11988;SDS011;6054;50.966;7.094;2023-04-08T08:57:23;35.90;;;25.02;;
11988;SDS011;6054;50.966;7.094;2023-04-08T08:59:50;36.88;;;25.67;;
11988;SDS011;6054;50.966;7.094;2023-04-08T09:02:24;35.70;;;24.02;;
11988;SDS011;6054;50.966;7.094;2023-04-08T09:04:57;32.22;;;23.50;;
11988;SDS011;6054;50.966;7.094;2023-04-08T09:07:25;36.38;;;23.77;;
11988;SDS011;6054;50.966;7.094;2023-04-08T09:09:54;34.63;;;23.13;;
11988;SDS011;6054;50.966;7.094;2023-04-08T09:12:21;36.63;;;23.60;;
11988;SDS011;6054;50.966;7.094;2023-04-08T09:14:49;36.90;;;24.42;;
11988;SDS011;6054;50.966;7.094;2023-04-08T09:17:29;31.55;;;22.73;;
11988;SDS011;6054;50.966;7.094;2023-04-08T09:20:04;37.13;;;23.35;;
11988;SDS011;6054;50.966;7.094;2023-04-08T09:25:23;38.28;;;24.35;;
11988;SDS011;6054;50.966;7.094;2023-04-08T09:27:50;35.15;;;23.48;;
11988;SDS011;6054;50.966;7.094;2023-04-08T09:30:18;35.63;;;23.50;;
11988;SDS011;6054;50.966;7.094;2023-04-08T09:32:46;34.22;;;22.80;;
11988;SDS011;6054;50.966;7.094;2023-04-08T09:35:13;32.72;;;22.17;;
11988;SDS011;6054;50.966;7.094;2023-04-08T09:37:41;35.10;;;23.00;;
11988;SDS011;6054;50.966;7.094;2023-04-08T09:40:08;34.78;;;24.55;;
11988;SDS011;6054;50.966;7.094;2023-04-08T09:42:38;32.70;;;23.08;;
11988;SDS011;6054;50.966;7.094;2023-04-08T09:45:06;33.65;;;24.83;;
11988;SDS011;6054;50.966;7.094;2023-04-08T09:47:38;34.42;;;24.33;;
11988;SDS011;6054;50.966;7.094;2023-04-08T09:50:12;34.15;;;23.75;;
11988;SDS011;6054;50.966;7.094;2023-04-08T09:52:42;35.83;;;25.10;;
11988;SDS011;6054;50.966;7.094;2023-04-08T09:55:11;31.60;;;24.20;;
11988;SDS011;6054;50.966;7.094;2023-04-08T09:57:40;33.30;;;24.27;;
11988;SDS011;6054;50.966;7.094;2023-04-08T10:00:11;33.40;;;25.13;;
11988;SDS011;6054;50.966;7.094;2023-04-08T10:02:42;29.83;;;22.73;;
11988;SDS011;6054;50.966;7.094;2023-04-08T10:05:18;32.47;;;23.73;;
11988;SDS011;6054;50.966;7.094;2023-04-08T10:07:45;29.85;;;22.08;;
11988;SDS011;6054;50.966;7.094;2023-04-08T10:10:13;33.78;;;24.25;;
11988;SDS011;6054;50.966;7.094;2023-04-08T10:12:41;32.30;;;24.85;;
11988;SDS011;6054;50.966;7.094;2023-04-08T10:15:22;33.97;;;23.02;;
11988;SDS011;6054;50.966;7.094;2023-04-08T10:17:52;30.42;;;22.50;;
11988;SDS011;6054;50.966;7.094;2023-04-08T10:23:09;30.25;;;23.40;;
11988;SDS011;6054;50.966;7.094;2023-04-08T10:25:38;29.08;;;20.90;;
11988;SDS011;6054;50.966;7.094;2023-04-08T10:28:26;26.88;;;20.67;;
11988;SDS011;6054;50.966;7.094;2023-04-08T10:30:54;28.70;;;21.50;;
11988;SDS011;6054;50.966;7.094;2023-04-08T10:33:22;26.58;;;19.92;;
11988;SDS011;6054;50.966;7.094;2023-04-08T10:35:58;26.73;;;20.10;;
11988;SDS011;6054;50.966;7.094;2023-04-08T10:38:28;31.80;;;21.48;;
11988;SDS011;6054;50.966;7.094;2023-04-08T10:40:55;29.45;;;21.08;;
11988;SDS011;6054;50.966;7.094;2023-04-08T10:43:22;30.17;;;20.90;;
11988;SDS011;6054;50.966;7.094;2023-04-08T10:45:50;30.95;;;21.98;;
11988;SDS011;6054;50.966;7.094;2023-04-08T10:48:20;30.55;;;21.80;;
11988;SDS011;6054;50.966;7.094;2023-04-08T10:50:51;28.63;;;20.90;;
11988;SDS011;6054;50.966;7.094;2023-04-08T10:53:24;28.48;;;20.85;;
11988;SDS011;6054;50.966;7.094;2023-04-08T10:55:52;27.25;;;21.38;;
11988;SDS011;6054;50.966;7.094;2023-04-08T10:58:18;26.90;;;20.50;;
11988;SDS011;6054;50.966;7.094;2023-04-08T11:00:46;26.80;;;20.48;;
11988;SDS011;6054;50.966;7.094;2023-04-08T11:03:14;30.50;;;20.58;;
11988;SDS011;6054;50.966;7.094;2023-04-08T11:05:40;28.80;;;20.52;;
11988;SDS011;6054;50.966;7.094;2023-04-08T11:08:07;24.17;;;19.00;;
11988;SDS011;6054;50.966;7.094;2023-04-08T11:10:35;26.90;;;19.05;;
11988;SDS011;6054;50.966;7.094;2023-04-08T11:13:05;26.38;;;18.50;;
11988;SDS011;6054;50.966;7.094;2023-04-08T11:15:32;28.25;;;19.85;;
11988;SDS011;6054;50.966;7.094;2023-04-08T11:18:01;23.10;;;18.30;;
11988;SDS011;6054;50.966;7.094;2023-04-08T11:20:30;25.70;;;18.05;;
11988;SDS011;6054;50.966;7.094;2023-04-08T11:22:58;25.67;;;18.13;;
11988;SDS011;6054;50.966;7.094;2023-04-08T11:25:25;22.17;;;17.70;;
11988;SDS011;6054;50.966;7.094;2023-04-08T11:27:52;21.92;;;16.33;;
11988;SDS011;6054;50.966;7.094;2023-04-08T11:30:19;20.85;;;16.92;;
11988;SDS011;6054;50.966;7.094;2023-04-08T11:32:48;22.67;;;17.48;;
11988;SDS011;6054;50.966;7.094;2023-04-08T11:35:16;18.98;;;14.70;;
11988;SDS011;6054;50.966;7.094;2023-04-08T11:37:44;16.65;;;12.50;;
11988;SDS011;6054;50.966;7.094;2023-04-08T11:40:12;16.40;;;12.57;;
11988;SDS011;6054;50.966;7.094;2023-04-08T11:42:44;16.92;;;11.25;;
11988;SDS011;6054;50.966;7.094;2023-04-08T11:45:11;14.80;;;10.30;;
11988;SDS011;6054;50.966;7.094;2023-04-08T11:47:40;14.60;;;11.50;;
11988;SDS011;6054;50.966;7.094;2023-04-08T11:50:07;16.40;;;11.15;;
11988;SDS011;6054;50.966;7.094;2023-04-08T11:52:41;14.43;;;11.00;;
11988;SDS011;6054;50.966;7.094;2023-04-08T11:55:23;14.93;;;10.80;;
11988;SDS011;6054;50.966;7.094;2023-04-08T11:57:51;13.70;;;10.52;;
11988;SDS011;6054;50.966;7.094;2023-04-08T12:00:18;16.08;;;11.48;;
11988;SDS011;6054;50.966;7.094;2023-04-08T12:02:45;16.63;;;12.02;;
11988;SDS011;6054;50.966;7.094;2023-04-08T12:05:12;15.90;;;12.00;;
11988;SDS011;6054;50.966;7.094;2023-04-08T12:07:40;16.10;;;12.20;;
11988;SDS011;6054;50.966;7.094;2023-04-08T12:10:08;15.35;;;11.82;;
11988;SDS011;6054;50.966;7.094;2023-04-08T12:12:35;14.82;;;11.70;;
11988;SDS011;6054;50.966;7.094;2023-04-08T12:15:02;13.02;;;10.48;;
11988;SDS011;6054;50.966;7.094;2023-04-08T12:17:29;15.60;;;10.63;;
11988;SDS011;6054;50.966;7.094;2023-04-08T12:19:56;12.30;;;10.25;;
11988;SDS011;6054;50.966;7.094;2023-04-08T12:22:23;15.63;;;12.13;;
11988;SDS011;6054;50.966;7.094;2023-04-08T12:24:49;13.27;;;10.38;;
11988;SDS011;6054;50.966;7.094;2023-04-08T12:27:18;14.90;;;11.27;;
11988;SDS011;6054;50.966;7.094;2023-04-08T12:29:44;16.27;;;11.07;;
11988;SDS011;6054;50.966;7.094;2023-04-08T12:32:13;15.35;;;11.40;;
11988;SDS011;6054;50.966;7.094;2023-04-08T12:34:40;14.95;;;11.77;;
11988;SDS011;6054;50.966;7.094;2023-04-08T12:37:07;14.65;;;11.02;;
11988;SDS011;6054;50.966;7.094;2023-04-08T12:39:33;13.18;;;10.23;;
11988;SDS011;6054;50.966;7.094;2023-04-08T12:42:00;16.27;;;12.18;;
11988;SDS011;6054;50.966;7.094;2023-04-08T12:44:28;14.20;;;11.50;;
11988;SDS011;6054;50.966;7.094;2023-04-08T12:46:55;13.43;;;11.18;;
11988;SDS011;6054;50.966;7.094;2023-04-08T12:49:23;15.00;;;11.95;;
11988;SDS011;6054;50.966;7.094;2023-04-08T12:51:50;13.95;;;11.40;;
11988;SDS011;6054;50.966;7.094;2023-04-08T12:54:17;15.90;;;12.23;;
11988;SDS011;6054;50.966;7.094;2023-04-08T12:56:44;15.82;;;12.32;;
11988;SDS011;6054;50.966;7.094;2023-04-08T12:59:12;17.35;;;13.30;;
11988;SDS011;6054;50.966;7.094;2023-04-08T13:01:41;16.05;;;12.48;;
11988;SDS011;6054;50.966;7.094;2023-04-08T13:04:08;16.55;;;12.57;;
11988;SDS011;6054;50.966;7.094;2023-04-08T13:06:34;16.73;;;12.43;;
11988;SDS011;6054;50.966;7.094;2023-04-08T13:09:01;16.15;;;12.20;;
11988;SDS011;6054;50.966;7.094;2023-04-08T13:11:28;16.90;;;12.10;;
11988;SDS011;6054;50.966;7.094;2023-04-08T13:13:55;15.60;;;12.48;;
11988;SDS011;6054;50.966;7.094;2023-04-08T13:16:22;14.48;;;11.23;;
11988;SDS011;6054;50.966;7.094;2023-04-08T13:18:50;15.63;;;11.88;;
11988;SDS011;6054;50.966;7.094;2023-04-08T13:21:17;13.50;;;11.00;;
11988;SDS011;6054;50.966;7.094;2023-04-08T13:23:44;12.20;;;9.88;;
11988;SDS011;6054;50.966;7.094;2023-04-08T13:26:11;14.27;;;9.63;;
11988;SDS011;6054;50.966;7.094;2023-04-08T13:28:38;10.70;;;8.32;;
11988;SDS011;6054;50.966;7.094;2023-04-08T13:31:05;10.00;;;8.10;;
11988;SDS011;6054;50.966;7.094;2023-04-08T13:33:32;8.65;;;7.63;;
11988;SDS011;6054;50.966;7.094;2023-04-08T13:36:00;11.10;;;7.53;;
11988;SDS011;6054;50.966;7.094;2023-04-08T13:38:26;10.30;;;7.25;;
11988;SDS011;6054;50.966;7.094;2023-04-08T13:40:53;9.05;;;7.20;;
11988;SDS011;6054;50.966;7.094;2023-04-08T13:43:20;8.23;;;7.10;;
11988;SDS011;6054;50.966;7.094;2023-04-08T13:45:47;8.30;;;7.30;;
11988;SDS011;6054;50.966;7.094;2023-04-08T13:48:14;8.77;;;7.60;;
11988;SDS011;6054;50.966;7.094;2023-04-08T13:50:41;10.48;;;7.85;;
11988;SDS011;6054;50.966;7.094;2023-04-08T13:53:09;10.10;;;8.10;;
11988;SDS011;6054;50.966;7.094;2023-04-08T13:55:36;10.27;;;7.90;;
11988;SDS011;6054;50.966;7.094;2023-04-08T13:58:02;9.15;;;8.15;;
11988;SDS011;6054;50.966;7.094;2023-04-08T14:00:29;8.70;;;7.38;;
11988;SDS011;6054;50.966;7.094;2023-04-08T14:02:56;8.68;;;7.03;;
11988;SDS011;6054;50.966;7.094;2023-04-08T14:05:23;8.43;;;6.70;;
11988;SDS011;6054;50.966;7.094;2023-04-08T14:07:50;8.63;;;6.25;;
11988;SDS011;6054;50.966;7.094;2023-04-08T14:10:18;8.05;;;6.82;;
11988;SDS011;6054;50.966;7.094;2023-04-08T14:12:45;7.78;;;6.43;;
11988;SDS011;6054;50.966;7.094;2023-04-08T14:15:12;7.70;;;6.20;;
11988;SDS011;6054;50.966;7.094;2023-04-08T14:17:38;6.85;;;5.93;;
11988;SDS011;6054;50.966;7.094;2023-04-08T14:20:06;6.13;;;5.53;;
11988;SDS011;6054;50.966;7.094;2023-04-08T14:22:33;8.45;;;6.68;;
11988;SDS011;6054;50.966;7.094;2023-04-08T14:24:59;8.95;;;6.88;;
11988;SDS011;6054;50.966;7.094;2023-04-08T14:27:28;7.72;;;6.13;;
11988;SDS011;6054;50.966;7.094;2023-04-08T14:29:55;7.28;;;5.80;;
11988;SDS011;6054;50.966;7.094;2023-04-08T14:32:22;6.53;;;5.28;;
11988;SDS011;6054;50.966;7.094;2023-04-08T14:34:48;7.55;;;5.35;;
11988;SDS011;6054;50.966;7.094;2023-04-08T14:37:15;5.78;;;5.18;;
11988;SDS011;6054;50.966;7.094;2023-04-08T14:39:42;5.57;;;5.07;;
11988;SDS011;6054;50.966;7.094;2023-04-08T14:42:10;6.18;;;5.18;;
11988;SDS011;6054;50.966;7.094;2023-04-08T14:44:38;6.03;;;4.90;;
11988;SDS011;6054;50.966;7.094;2023-04-08T14:47:05;6.38;;;5.20;;